Time;durP1;ratioP1;P1;durP2;ratioP2;P2;SDS_P1;SDS_P2;PMS_P1;PMS_P2;Temp;Humidity;BMP_temperature;BMP_pressure;BME280_temperature;BME280_humidity;BME280_pressure;Samples;Min_cycle;Max_cycle;Signal;HPM_P1;HPM_P2
2022/07/25 00:01:53;;;;;;;12.48;10.13;;;;;;;30.36;37.58;99217.97;5011303;28;20026;-85
2022/07/25 00:04:19;;;;;;;16.08;9.98;;;;;;;30.56;37.63;99260.19;5027416;28;20514;-85
2022/07/25 00:06:45;;;;;;;11.15;9.63;;;;;;;29.80;37.72;99129.69;5012200;28;20037;-85
2022/07/25 00:09:11;;;;;;;15.20;10.02;;;;;;;30.57;38.08;99265.31;5027260;28;20036;-85
2022/07/25 00:11:36;;;;;;;14.60;10.65;;;;;;;30.29;37.86;99209.47;5027248;28;20026;-85
2022/07/25 00:14:03;;;;;;;14.40;10.00;;;;;;;30.60;37.55;99251.09;5026859;28;20085;-85
2022/07/25 00:16:28;;;;;;;9.85;8.82;;;;;;;30.00;37.98;99178.09;5011851;28;20030;-85
2022/07/25 00:18:54;;;;;;;10.60;8.38;;;;;;;30.11;37.55;99196.91;5010723;28;20030;-85
2022/07/25 00:21:19;;;;;;;9.48;7.97;;;;;;;30.48;37.75;99267.22;5010505;28;20018;-86
2022/07/25 00:23:45;;;;;;;12.68;8.35;;;;;;;29.72;37.42;99133.94;5012077;28;20052;-85
2022/07/25 00:26:10;;;;;;;10.02;8.93;;;;;;;29.69;37.44;99133.78;5011846;28;20026;-85
2022/07/25 00:28:38;;;;;;;9.18;8.27;;;;;;;29.63;37.44;99129.59;5011832;28;20026;-85
2022/07/25 00:31:03;;;;;;;11.10;8.43;;;;;;;30.54;37.09;99274.13;5010401;28;20559;-85
2022/07/25 00:33:29;;;;;;;9.02;8.13;;;;;;;30.01;37.17;99184.34;5011677;28;20152;-85
2022/07/25 00:35:54;;;;;;;9.20;8.35;;;;;;;29.97;37.27;99183.38;5011738;28;20030;-85
2022/07/25 00:38:19;;;;;;;9.90;8.77;;;;;;;30.44;37.20;99276.31;5026871;28;20051;-85
2022/07/25 00:40:45;;;;;;;11.73;9.15;;;;;;;30.09;37.08;99219.00;5011809;28;20479;-85
2022/07/25 00:43:10;;;;;;;9.52;8.73;;;;;;;30.28;36.75;99244.06;5011671;28;20033;-85
2022/07/25 00:45:36;;;;;;;11.95;10.00;;;;;;;30.21;36.69;99237.47;5011726;28;20033;-85
2022/07/25 00:48:01;;;;;;;9.98;8.95;;;;;;;29.71;36.44;99136.97;5011633;28;20036;-85
2022/07/25 00:50:27;;;;;;;11.45;9.63;;;;;;;29.75;36.01;99170.63;5011664;28;20037;-85
2022/07/25 00:52:53;;;;;;;10.20;9.18;;;;;;;30.54;36.22;99295.13;5026717;28;20026;-85
2022/07/25 00:55:18;;;;;;;13.65;9.70;;;;;;;30.15;35.86;99255.06;5026563;28;20029;-86
2022/07/25 00:57:44;;;;;;;10.68;9.77;;;;;;;30.54;35.76;99295.13;5026802;28;20521;-85
2022/07/25 01:00:13;;;;;;;13.68;10.00;;;;;;;30.55;35.87;99291.28;5011295;28;20044;-85
2022/07/25 01:02:39;;;;;;;10.00;9.05;;;;;;;30.15;35.60;99236.00;5011670;28;20410;-85
2022/07/25 01:05:05;;;;;;;13.95;9.93;;;;;;;30.55;35.64;99319.34;5011544;28;20514;-85
2022/07/25 01:07:31;;;;;;;16.08;9.60;;;;;;;30.50;35.74;99299.59;5011491;28;20491;-85
2022/07/25 01:09:58;;;;;;;11.18;9.98;;;;;;;29.96;35.94;99245.19;5011466;28;20084;-85
2022/07/25 01:12:24;;;;;;;12.25;9.73;;;;;;;30.11;36.12;99273.16;5026476;28;20040;-85
2022/07/25 01:14:49;;;;;;;11.95;9.68;;;;;;;29.52;36.50;99194.34;5011989;28;20105;-85
2022/07/25 01:17:15;;;;;;;15.73;9.88;;;;;;;29.94;36.79;99290.16;5040860;28;20060;-85
2022/07/25 01:19:40;;;;;;;16.73;10.05;;;;;;;29.45;37.06;99217.66;5028521;28;20053;-85
2022/07/25 01:22:06;;;;;;;16.10;10.32;;;;;;;29.17;37.25;99182.41;5012254;28;20061;-85
2022/07/25 01:24:34;;;;;;;14.75;9.63;;;;;;;29.96;37.69;99335.03;5012392;28;20025;-85
2022/07/25 01:26:59;;;;;;;15.88;9.82;;;;;;;29.97;37.84;99328.47;5012954;28;20025;-85
2022/07/25 01:29:25;;;;;;;16.10;10.18;;;;;;;29.66;38.21;99286.78;5030610;28;20556;-85
2022/07/25 01:31:50;;;;;;;29.48;10.82;;;;;;;29.27;38.49;99222.16;5013892;28;20033;-86
2022/07/25 01:34:16;;;;;;;11.93;10.05;;;;;;;28.42;38.50;99145.78;5014980;28;20482;-86
2022/07/25 01:36:41;;;;;;;11.38;9.25;;;;;;;28.94;38.82;99207.94;5015211;28;20112;-85
2022/07/25 01:39:06;;;;;;;16.25;9.70;;;;;;;29.15;38.76;99273.56;5015029;28;20026;-85
2022/07/25 01:41:32;;;;;;;11.50;9.38;;;;;;;29.59;38.80;99347.06;5014773;28;20418;-85
2022/07/25 01:43:57;;;;;;;14.38;10.30;;;;;;;28.93;39.29;99215.31;5029980;28;20084;-85
2022/07/25 01:46:23;;;;;;;11.88;10.52;;;;;;;29.51;39.38;99323.31;5014707;28;20574;-85
2022/07/25 01:48:48;;;;;;;11.20;9.50;;;;;;;29.06;39.34;99278.91;5029994;28;20026;-85
2022/07/25 01:51:14;;;;;;;11.23;9.65;;;;;;;29.45;39.02;99302.00;5014666;28;20021;-85
2022/07/25 01:53:39;;;;;;;10.73;9.13;;;;;;;29.15;39.54;99266.22;5014550;28;20399;-85
2022/07/25 01:56:05;;;;;;;13.50;9.98;;;;;;;29.45;39.30;99310.16;5017940;28;20030;-85
2022/07/25 01:58:31;;;;;;;11.70;9.98;;;;;;;28.10;39.52;99075.31;5017981;28;20030;-85
2022/07/25 02:00:56;;;;;;;13.90;10.07;;;;;;;29.28;39.59;99243.59;5015567;28;20030;-85
2022/07/25 02:03:31;;;;;;;16.30;10.70;;;;;;;28.70;39.76;99156.56;5030819;28;20034;-85
2022/07/25 02:05:59;;;;;;;11.88;10.32;;;;;;;29.67;39.57;99280.22;5015300;28;20057;-85
2022/07/25 02:08:24;;;;;;;11.85;10.60;;;;;;;29.64;39.97;99286.28;5015384;28;20033;-85
2022/07/25 02:10:50;;;;;;;13.82;11.52;;;;;;;29.60;40.48;99307.84;5012993;28;20032;-85
2022/07/25 02:13:16;;;;;;;14.30;11.30;;;;;;;28.46;40.28;99145.97;5014330;28;20030;-85
2022/07/25 02:15:41;;;;;;;14.00;10.45;;;;;;;28.59;40.82;99179.66;5029438;28;20099;-85
2022/07/25 02:18:07;;;;;;;14.52;11.10;;;;;;;29.08;40.88;99230.47;5029447;28;20089;-85
2022/07/25 02:20:32;;;;;;;12.52;10.60;;;;;;;28.48;41.05;99147.28;5014132;28;20061;-85
2022/07/25 02:22:58;;;;;;;15.32;11.30;;;;;;;29.38;40.92;99283.34;5014287;28;20094;-85
2022/07/25 02:25:23;;;;;;;13.13;11.45;;;;;;;28.63;41.42;99170.56;5029244;28;20029;-85
2022/07/25 02:27:49;;;;;;;14.23;11.35;;;;;;;29.07;41.39;99250.63;5014093;28;20108;-85
2022/07/25 02:30:14;;;;;;;16.92;11.45;;;;;;;27.89;41.48;99072.22;5029238;28;20033;-85
2022/07/25 02:32:40;;;;;;;16.13;12.20;;;;;;;28.78;41.69;99213.72;5013904;28;20108;-85
2022/07/25 02:35:06;;;;;;;13.07;11.68;;;;;;;29.25;41.43;99292.34;5013737;28;20060;-85
2022/07/25 02:37:32;;;;;;;16.23;11.27;;;;;;;28.98;41.51;99247.00;5013205;28;20117;-85
2022/07/25 02:39:57;;;;;;;20.27;11.98;;;;;;;28.40;41.46;99160.78;5013415;28;20113;-86
2022/07/25 02:42:23;;;;;;;14.32;11.55;;;;;;;28.58;42.12;99195.13;5013105;28;20029;-85
2022/07/25 02:44:48;;;;;;;12.80;10.82;;;;;;;28.80;42.01;99240.56;5033308;28;20037;-85
2022/07/25 02:47:14;;;;;;;12.68;11.40;;;;;;;28.38;41.96;99193.66;5031954;28;20117;-85
2022/07/25 02:49:39;;;;;;;12.90;11.40;;;;;;;29.02;42.04;99283.34;5015659;28;20034;-85
2022/07/25 02:52:04;;;;;;;13.05;11.52;;;;;;;28.47;42.01;99199.19;5029607;28;20076;-85
2022/07/25 02:54:30;;;;;;;13.63;10.35;;;;;;;28.38;41.92;99215.38;5013644;28;20061;-85
2022/07/25 02:56:55;;;;;;;11.68;10.63;;;;;;;28.36;41.81;99182.31;5028735;28;20054;-85
2022/07/25 02:59:21;;;;;;;11.10;10.00;;;;;;;28.82;41.55;99260.09;5013853;28;20030;-85
2022/07/25 03:01:46;;;;;;;11.18;10.18;;;;;;;28.63;41.33;99232.25;5028450;28;20053;-85
2022/07/25 03:04:11;;;;;;;11.05;10.05;;;;;;;28.64;41.29;99223.00;5013249;28;20030;-85
2022/07/25 03:06:37;;;;;;;10.70;9.60;;;;;;;28.52;40.60;99195.56;5013341;28;20033;-85
2022/07/25 03:09:03;;;;;;;10.80;9.70;;;;;;;28.54;40.65;99190.63;5013575;28;20029;-85
2022/07/25 03:11:29;;;;;;;10.43;9.48;;;;;;;28.59;40.16;99204.09;5013378;28;20029;-85
2022/07/25 03:13:54;;;;;;;11.43;10.43;;;;;;;28.43;40.12;99168.31;5028555;28;20030;-85
2022/07/25 03:16:19;;;;;;;11.38;10.27;;;;;;;29.03;39.94;99274.09;5014282;28;20033;-85
2022/07/25 03:18:45;;;;;;;10.32;9.48;;;;;;;28.84;39.81;99236.16;5012860;28;20041;-85
2022/07/25 03:21:11;;;;;;;11.65;10.70;;;;;;;29.03;39.88;99253.16;5012534;28;20053;-85
2022/07/25 03:23:37;;;;;;;11.05;10.05;;;;;;;29.39;40.09;99304.00;5012932;28;20104;-85
2022/07/25 03:26:02;;;;;;;11.23;10.05;;;;;;;29.13;39.90;99268.44;5012852;28;20022;-85
2022/07/25 03:28:28;;;;;;;16.05;10.18;;;;;;;28.86;40.05;99244.81;5012695;28;20034;-85
2022/07/25 03:30:53;;;;;;;11.95;10.60;;;;;;;29.33;40.75;99319.63;5012609;28;20021;-85
2022/07/25 03:33:19;;;;;;;12.63;11.15;;;;;;;29.44;40.91;99338.47;5028018;28;20132;-85
2022/07/25 03:35:44;;;;;;;12.10;11.07;;;;;;;29.16;41.55;99354.00;5027955;28;20076;-85
2022/07/25 03:38:10;;;;;;;12.43;11.05;;;;;;;28.92;41.83;99349.59;5012581;28;20517;-85
2022/07/25 03:40:36;;;;;;;13.35;11.73;;;;;;;27.62;42.33;99134.63;5011233;28;20026;-85
2022/07/25 03:43:01;;;;;;;12.82;11.65;;;;;;;28.16;42.44;99232.31;5012326;28;20034;-85
2022/07/25 03:45:27;;;;;;;13.00;11.68;;;;;;;28.29;42.87;99257.94;5012301;28;20036;-85
2022/07/25 03:47:54;;;;;;;14.40;11.82;;;;;;;29.02;42.98;99359.47;5027661;28;20030;-85
2022/07/25 03:50:19;;;;;;;15.07;11.95;;;;;;;27.57;43.21;99165.31;5012120;28;20034;-85
2022/07/25 03:52:44;;;;;;;13.35;11.60;;;;;;;28.22;43.22;99270.25;5027668;28;20037;-85
2022/07/25 03:55:10;;;;;;;15.13;12.35;;;;;;;28.86;43.23;99356.25;5027381;28;20029;-85
2022/07/25 03:57:36;;;;;;;14.68;12.05;;;;;;;28.93;43.36;99380.28;5012215;28;20053;-85
2022/07/25 04:00:03;;;;;;;14.90;12.48;;;;;;;28.97;43.22;99365.78;5010989;28;20112;-85
2022/07/25 04:02:29;;;;;;;13.57;12.25;;;;;;;28.62;43.11;99315.66;5011016;28;20479;-85
2022/07/25 04:04:54;;;;;;;14.35;12.95;;;;;;;28.77;43.41;99349.88;5027534;28;20125;-85
2022/07/25 04:07:20;;;;;;;14.98;12.20;;;;;;;28.86;43.40;99345.38;5012361;28;20025;-84
2022/07/25 04:09:45;;;;;;;16.65;12.02;;;;;;;28.58;43.27;99308.44;5012048;28;20026;-85
2022/07/25 04:12:10;;;;;;;14.43;12.93;;;;;;;28.93;43.15;99348.47;5027274;28;20065;-85
2022/07/25 04:14:36;;;;;;;13.90;12.45;;;;;;;28.48;43.25;99277.66;5027491;28;20113;-85
2022/07/25 04:17:01;;;;;;;13.40;11.45;;;;;;;28.66;43.32;99300.38;5012102;28;20457;-85
2022/07/25 04:19:27;;;;;;;14.52;13.00;;;;;;;28.47;43.22;99269.78;5012394;28;20056;-85
2022/07/25 04:21:52;;;;;;;14.98;12.27;;;;;;;28.58;42.77;99281.25;5011901;28;20487;-85
2022/07/25 04:24:17;;;;;;;13.95;11.65;;;;;;;28.53;43.01;99284.06;5011630;28;20032;-85
2022/07/25 04:26:43;;;;;;;13.65;12.25;;;;;;;28.55;42.95;99279.94;5026931;28;20026;-85
2022/07/25 04:29:08;;;;;;;13.50;12.18;;;;;;;28.93;43.02;99336.81;5011962;28;20034;-85
2022/07/25 04:31:34;;;;;;;14.38;12.90;;;;;;;29.20;42.89;99377.56;5027358;28;20048;-84
2022/07/25 04:33:59;;;;;;;20.27;13.55;;;;;;;28.85;42.76;99310.34;5012370;28;20529;-85
2022/07/25 04:36:25;;;;;;;14.05;12.75;;;;;;;28.86;43.31;99307.31;5035725;28;20018;-85
2022/07/25 04:38:51;;;;;;;16.13;13.00;;;;;;;29.21;42.95;99356.63;5041578;28;20026;-85
2022/07/25 04:41:17;;;;;;;13.45;12.15;;;;;;;28.96;43.31;99315.25;5012778;28;20030;-85
2022/07/25 04:43:43;;;;;;;14.85;12.88;;;;;;;29.18;43.00;99354.50;5012367;28;20080;-85
2022/07/25 04:46:08;;;;;;;16.38;12.10;;;;;;;28.50;43.16;99242.03;5012396;28;20042;-85
2022/07/25 04:48:33;;;;;;;14.52;12.77;;;;;;;28.86;42.85;99301.88;5027592;28;20049;-85
2022/07/25 04:50:59;;;;;;;18.38;13.05;;;;;;;29.04;43.08;99319.19;5028513;28;20026;-85
2022/07/25 04:53:24;;;;;;;16.15;12.88;;;;;;;28.83;43.14;99293.50;5024152;28;20025;-85
2022/07/25 04:55:50;;;;;;;20.35;13.25;;;;;;;28.59;43.29;99232.06;5020166;28;20526;-85
2022/07/25 04:58:15;;;;;;;19.48;13.00;;;;;;;29.08;43.17;99321.00;5012484;28;20049;-85
2022/07/25 05:00:41;;;;;;;18.00;13.98;;;;;;;28.79;43.52;99277.81;5012075;28;20487;-85
2022/07/25 05:03:06;;;;;;;15.75;14.15;;;;;;;28.90;43.64;99297.44;5015591;28;20041;-85
2022/07/25 05:05:31;;;;;;;16.23;13.35;;;;;;;29.24;43.63;99335.06;5015814;28;20033;-85
2022/07/25 05:07:58;;;;;;;17.92;13.00;;;;;;;29.01;43.33;99293.44;5030859;28;20037;-85
2022/07/25 05:10:25;;;;;;;15.95;12.73;;;;;;;29.39;43.05;99351.03;5015383;28;20060;-85
2022/07/25 05:12:51;;;;;;;20.13;13.75;;;;;;;29.40;42.86;99360.00;5015289;28;20037;-85
2022/07/25 05:15:17;;;;;;;15.38;13.40;;;;;;;29.43;42.63;99351.25;5013650;28;20038;-86
2022/07/25 05:17:43;;;;;;;17.25;12.85;;;;;;;29.50;42.36;99362.50;5007195;28;20030;-86
2022/07/25 05:20:09;;;;;;;14.65;11.82;;;;;;;29.36;42.52;99353.56;5009433;28;20029;-86
2022/07/25 05:22:35;;;;;;;12.70;11.50;;;;;;;29.27;42.00;99326.28;5015484;28;20098;-85
2022/07/25 05:25:01;;;;;;;12.73;11.30;;;;;;;29.30;41.72;99312.06;5007114;28;20534;-86
2022/07/25 05:27:27;;;;;;;12.68;11.23;;;;;;;29.60;41.91;99370.44;4996779;28;20068;-86
2022/07/25 05:29:52;;;;;;;12.90;11.02;;;;;;;28.35;41.93;99194.28;5016616;28;20017;-86
2022/07/25 05:32:18;;;;;;;16.38;11.35;;;;;;;29.64;41.74;99363.28;5015447;28;20103;-86
2022/07/25 05:34:44;;;;;;;11.80;10.70;;;;;;;29.16;41.78;99272.44;5018829;28;20034;-86
2022/07/25 05:37:10;;;;;;;20.90;10.35;;;;;;;29.61;41.41;99327.72;4996550;28;20030;-86
2022/07/25 05:39:38;;;;;;;12.05;10.90;;;;;;;29.28;41.32;99278.94;5012713;28;20462;-86
2022/07/25 05:42:04;;;;;;;12.40;10.45;;;;;;;29.72;41.22;99338.03;4997349;28;20030;-86
2022/07/25 05:44:29;;;;;;;10.95;10.05;;;;;;;29.37;41.37;99309.75;4997954;28;20108;-86
2022/07/25 05:46:55;;;;;;;12.70;11.40;;;;;;;29.31;41.42;99261.22;5029994;28;20026;-86
2022/07/25 05:49:20;;;;;;;12.15;11.00;;;;;;;29.20;41.51;99271.53;5006552;28;20030;-86
2022/07/25 05:51:45;;;;;;;13.82;10.60;;;;;;;29.13;41.45;99232.28;4998608;28;20034;-86
2022/07/25 05:54:11;;;;;;;12.60;11.30;;;;;;;29.79;41.11;99334.91;5000683;28;20057;-86
2022/07/25 05:56:36;;;;;;;11.48;10.23;;;;;;;29.49;40.75;99308.41;4994615;28;20077;-86
2022/07/25 05:59:02;;;;;;;10.68;9.68;;;;;;;29.21;40.88;99243.22;5009896;28;20038;-86
2022/07/25 06:01:27;;;;;;;11.43;10.38;;;;;;;29.08;40.78;99244.06;5011367;28;20061;-86
2022/07/25 06:03:53;;;;;;;11.15;10.25;;;;;;;29.20;40.84;99262.56;5007930;28;20137;-86
2022/07/25 06:06:18;;;;;;;10.25;9.25;;;;;;;29.54;40.96;99306.38;5022511;28;20037;-86
2022/07/25 06:08:44;;;;;;;10.23;9.30;;;;;;;29.60;41.03;99288.00;5009963;28;20034;-86
2022/07/25 06:11:09;;;;;;;10.40;9.30;;;;;;;29.32;40.46;99254.66;4996436;28;20461;-86
2022/07/25 06:13:35;;;;;;;11.07;10.13;;;;;;;28.47;40.30;99142.16;5015089;28;20484;-86
2022/07/25 06:16:00;;;;;;;10.35;9.45;;;;;;;28.71;40.43;99166.31;4998961;28;20032;-86
2022/07/25 06:18:27;;;;;;;11.20;10.20;;;;;;;29.58;40.34;99295.69;5009537;28;20060;-86
2022/07/25 06:20:53;;;;;;;11.05;10.05;;;;;;;29.80;40.58;99339.25;5012495;28;20034;-85
2022/07/25 06:23:19;;;;;;;10.88;9.90;;;;;;;29.39;40.20;99257.75;5012813;28;20033;-86
2022/07/25 06:25:45;;;;;;;11.60;10.50;;;;;;;29.94;40.57;99339.16;5010690;28;20033;-85
2022/07/25 06:28:13;;;;;;;11.23;10.07;;;;;;;29.32;40.19;99235.63;4996776;28;20088;-85
2022/07/25 06:30:40;;;;;;;11.18;10.15;;;;;;;29.90;40.25;99341.72;5002306;28;20557;-85
2022/07/25 06:33:05;;;;;;;12.45;11.45;;;;;;;29.39;40.33;99236.00;5015146;28;20022;-86
2022/07/25 06:35:31;;;;;;;11.68;10.63;;;;;;;30.04;40.22;99311.72;5014069;28;20433;-85
2022/07/25 06:37:56;;;;;;;13.30;12.02;;;;;;;29.86;39.82;99282.75;5012916;28;20034;-85
2022/07/25 06:40:22;;;;;;;14.18;12.55;;;;;;;30.30;40.25;99329.00;5012379;28;20096;-85
2022/07/25 06:42:47;;;;;;;14.02;12.20;;;;;;;29.87;40.21;99263.41;5012260;28;20034;-85
2022/07/25 06:45:14;;;;;;;17.80;12.55;;;;;;;29.70;40.88;99227.91;5012599;28;20026;-85
2022/07/25 06:47:41;;;;;;;14.43;13.13;;;;;;;30.40;40.86;99327.91;5006096;28;20406;-84
2022/07/25 06:50:09;;;;;;;15.00;12.82;;;;;;;28.99;40.63;99099.13;5006307;28;20034;-84
2022/07/25 06:52:35;;;;;;;18.50;13.05;;;;;;;29.93;40.90;99242.28;5013516;28;20029;-85
2022/07/25 06:55:02;;;;;;;15.18;11.07;;;;;;;30.50;41.14;99321.41;5010895;28;20036;-86
2022/07/25 06:57:28;;;;;;;17.70;12.43;;;;;;;30.04;41.16;99241.72;5039633;28;20046;-85
2022/07/25 06:59:53;;;;;;;13.15;11.82;;;;;;;30.06;40.96;99237.88;5028665;28;20076;-85
2022/07/25 07:02:18;;;;;;;12.43;11.18;;;;;;;29.67;40.50;99183.06;5016913;28;20083;-85
2022/07/25 07:04:44;;;;;;;12.63;11.52;;;;;;;30.63;40.31;99332.22;5022608;28;20025;-84
2022/07/25 07:07:09;;;;;;;13.13;11.77;;;;;;;30.40;40.72;99288.97;5003923;28;20030;-85
2022/07/25 07:09:35;;;;;;;12.80;11.68;;;;;;;30.55;40.39;99311.16;5007712;28;20030;-86
2022/07/25 07:12:00;;;;;;;13.57;12.40;;;;;;;30.81;40.48;99343.19;5004046;28;20029;-85
2022/07/25 07:14:26;;;;;;;13.77;12.48;;;;;;;30.28;40.11;99243.25;5011809;28;20030;-85
2022/07/25 07:16:51;;;;;;;13.95;12.60;;;;;;;30.46;40.24;99277.59;5011225;28;20030;-85
2022/07/25 07:19:17;;;;;;;13.95;12.65;;;;;;;30.14;40.15;99243.38;5010684;28;20032;-85
2022/07/25 07:21:42;;;;;;;13.68;12.60;;;;;;;30.25;40.55;99263.75;4994524;28;20056;-83
2022/07/25 07:24:08;;;;;;;13.70;12.32;;;;;;;30.83;40.80;99340.94;4995390;28;20035;-85
2022/07/25 07:26:34;;;;;;;12.60;11.40;;;;;;;30.80;39.54;99339.66;5010501;28;20034;-85
2022/07/25 07:29:01;;;;;;;13.32;11.95;;;;;;;30.28;39.29;99249.50;5006566;28;20034;-84
2022/07/25 07:31:27;;;;;;;13.27;11.95;;;;;;;30.32;38.77;99245.03;5012146;28;20033;-84
2022/07/25 07:33:52;;;;;;;12.52;11.38;;;;;;;30.63;38.72;99285.09;5010773;28;20026;-85
2022/07/25 07:36:18;;;;;;;12.93;11.80;;;;;;;30.44;38.33;99268.16;5010673;28;20025;-85
2022/07/25 07:38:43;;;;;;;12.40;11.18;;;;;;;30.40;37.96;99223.59;5012304;28;20104;-85
2022/07/25 07:41:09;;;;;;;12.18;10.82;;;;;;;30.90;37.98;99303.91;4998486;28;20515;-85
2022/07/25 07:43:35;;;;;;;13.02;11.30;;;;;;;30.46;37.53;99250.38;5011186;28;20076;-84
2022/07/25 07:46:00;;;;;;;11.77;10.70;;;;;;;30.61;37.41;99243.72;5020327;28;20041;-86
2022/07/25 07:48:27;;;;;;;11.85;10.65;;;;;;;30.97;37.18;99304.25;5032070;28;20033;-85
2022/07/25 07:50:52;;;;;;;12.85;11.68;;;;;;;31.29;37.41;99332.25;5034910;28;20034;-85
2022/07/25 07:53:18;;;;;;;12.25;11.25;;;;;;;31.33;36.59;99349.56;5005257;28;20108;-85
2022/07/25 07:55:54;;;;;;;13.98;12.70;;;;;;;30.88;36.87;99248.09;5012338;28;20029;-85
2022/07/25 07:58:20;;;;;;;16.02;14.63;;;;;;;31.18;36.76;99298.19;5012145;28;20050;-85
2022/07/25 08:00:47;;;;;;;13.10;11.93;;;;;;;30.30;36.75;99146.50;5012110;28;20561;-85
2022/07/25 08:03:18;;;;;;;14.15;12.13;;;;;;;31.39;36.55;99321.00;5011876;28;20036;-85
2022/07/25 08:05:44;;;;;;;12.95;11.88;;;;;;;31.56;36.84;99345.56;5011373;28;20439;-85
2022/07/25 08:08:13;;;;;;;12.82;11.68;;;;;;;31.26;36.73;99286.50;5026995;28;20041;-86
2022/07/25 08:10:42;;;;;;;13.30;12.07;;;;;;;30.88;36.51;99209.94;5027460;28;20109;-85
2022/07/25 08:13:15;;;;;;;14.50;13.20;;;;;;;31.01;36.25;99240.88;5004687;28;20406;-85
2022/07/25 08:15:42;;;;;;;13.13;12.00;;;;;;;31.15;36.34;99236.91;5025732;28;20477;-85
2022/07/25 08:18:08;;;;;;;13.40;12.02;;;;;;;30.72;35.94;99157.00;5008491;28;20433;-85
2022/07/25 08:20:33;;;;;;;12.40;11.30;;;;;;;31.81;35.97;99337.72;5011561;28;20030;-85
2022/07/25 08:22:59;;;;;;;12.82;11.75;;;;;;;31.52;35.56;99272.84;4997689;28;20121;-89
2022/07/25 08:25:24;;;;;;;12.95;11.75;;;;;;;32.03;35.76;99339.47;5026704;28;20041;-88
2022/07/25 08:27:50;;;;;;;13.90;12.50;;;;;;;32.07;35.39;99335.75;5006705;28;20030;-88
2022/07/25 08:30:16;;;;;;;14.18;12.75;;;;;;;31.57;35.01;99259.84;5022789;28;20037;-89
2022/07/25 08:32:51;;;;;;;15.63;14.23;;;;;;;32.37;35.43;99363.16;5029116;28;20030;-88
2022/07/25 08:35:18;;;;;;;19.88;18.17;;;;;;;32.02;35.49;99291.44;4993482;28;20030;-89
2022/07/25 08:37:44;;;;;;;14.48;12.95;;;;;;;32.01;35.06;99268.78;4993109;28;20446;-89
2022/07/25 08:40:11;;;;;;;15.90;14.50;;;;;;;32.66;34.60;99367.88;4991440;28;20080;-87
2022/07/25 08:42:37;;;;;;;15.43;13.98;;;;;;;32.16;34.54;99309.22;4991325;28;20049;-87
2022/07/25 08:45:05;;;;;;;14.95;13.43;;;;;;;32.28;34.62;99310.47;4992229;28;20491;-87
2022/07/25 08:47:32;;;;;;;15.23;13.98;;;;;;;32.72;34.44;99367.41;5028331;28;20042;-86
2022/07/25 08:49:57;;;;;;;17.25;15.75;;;;;;;32.43;34.17;99312.66;5022674;28;20573;-89
2022/07/25 08:52:23;;;;;;;17.42;15.93;;;;;;;32.84;34.26;99358.50;5025814;28;20025;-88
2022/07/25 08:54:49;;;;;;;15.82;14.27;;;;;;;33.05;33.84;99353.88;5015513;28;20431;-88
2022/07/25 08:57:15;;;;;;;15.32;13.98;;;;;;;32.81;34.03;99312.69;5010542;28;20054;-87
2022/07/25 08:59:41;;;;;;;15.50;14.00;;;;;;;33.16;34.06;99381.66;5010361;28;20030;-88
2022/07/25 09:02:09;;;;;;;14.88;13.68;;;;;;;32.50;33.67;99239.97;5010599;28;20029;-88
2022/07/25 09:04:36;;;;;;;15.70;14.25;;;;;;;33.17;33.91;99345.75;5010163;28;20040;-88
2022/07/25 09:07:03;;;;;;;14.70;13.05;;;;;;;32.94;33.21;99275.28;5011305;28;20545;-88
2022/07/25 09:09:37;;;;;;;15.10;11.70;;;;;;;33.52;32.83;99353.75;5011180;28;20384;-88
2022/07/25 09:12:04;;;;;;;13.95;11.50;;;;;;;33.16;33.01;99297.63;5010979;28;20033;-88
2022/07/25 09:14:30;;;;;;;11.90;10.82;;;;;;;33.28;32.98;99321.53;5012317;28;20056;-89
2022/07/25 09:16:55;;;;;;;12.13;11.07;;;;;;;33.30;32.89;99297.41;5012026;28;20029;-89
2022/07/25 09:19:23;;;;;;;12.75;11.65;;;;;;;33.92;32.60;99354.06;5011080;28;20455;-88
2022/07/25 09:22:01;;;;;;;12.27;11.15;;;;;;;33.85;32.24;99304.50;5012048;28;20030;-88
2022/07/25 09:24:27;;;;;;;14.23;13.00;;;;;;;34.23;32.15;99361.81;5011333;28;20030;-88
2022/07/25 09:26:55;;;;;;;14.40;13.10;;;;;;;34.46;31.89;99353.19;5009897;28;20479;-88
2022/07/25 09:29:29;;;;;;;13.65;12.30;;;;;;;34.32;31.61;99291.28;5010785;28;20026;-88
2022/07/25 09:31:56;;;;;;;13.27;12.15;;;;;;;34.77;31.51;99316.97;5010410;28;20073;-88
2022/07/25 09:34:36;;;;;;;14.05;12.60;;;;;;;35.14;30.32;99358.94;5010290;28;20033;-88
2022/07/25 09:37:07;;;;;;;12.90;11.70;;;;;;;34.77;30.95;99287.59;5010542;28;20029;-89
2022/07/25 09:39:39;;;;;;;13.05;11.77;;;;;;;34.98;30.68;99314.94;5010680;28;20092;-88
2022/07/25 09:42:25;;;;;;;13.50;12.20;;;;;;;35.37;29.91;99353.75;5010377;28;20054;-88
2022/07/25 09:45:03;;;;;;;13.82;12.57;;;;;;;35.38;29.19;99305.94;5010538;28;20042;-88
2022/07/25 09:47:32;;;;;;;13.52;12.23;;;;;;;35.76;29.28;99361.19;5010660;28;20034;-88
2022/07/25 09:49:58;;;;;;;13.13;12.02;;;;;;;35.46;29.15;99303.06;5013350;28;20037;-88
2022/07/25 09:52:23;;;;;;;13.00;11.98;;;;;;;35.74;28.97;99327.00;5013486;28;20014;-88
2022/07/25 09:54:49;;;;;;;13.10;11.85;;;;;;;35.67;29.48;99316.56;5012180;28;20073;-88
2022/07/25 09:57:15;;;;;;;12.43;11.32;;;;;;;35.78;29.08;99303.16;5012339;28;20077;-88
2022/07/25 09:59:41;;;;;;;12.77;11.52;;;;;;;35.78;29.13;99336.13;5013449;28;20038;-88
2022/07/25 10:02:25;;;;;;;13.05;11.73;;;;;;;35.98;29.00;99327.69;5000579;28;20029;-88
2022/07/25 10:05:14;;;;;;;11.80;10.80;;;;;;;36.12;28.92;99338.25;5015150;28;20022;-88
2022/07/25 10:07:45;;;;;;;13.52;12.25;;;;;;;35.87;28.31;99262.59;5003956;28;20034;-88
2022/07/25 10:10:27;;;;;;;13.18;11.82;;;;;;;36.21;28.37;99269.34;5013926;28;20122;-88
2022/07/25 10:13:12;;;;;;;12.38;11.35;;;;;;;36.65;27.83;99322.31;5013131;28;20045;-88
2022/07/25 10:15:51;;;;;;;11.35;10.32;;;;;;;36.70;28.13;99313.00;5015867;28;20022;-89
2022/07/25 10:18:23;;;;;;;12.07;11.07;;;;;;;36.40;27.89;99265.91;5028192;28;20045;-88
2022/07/25 10:20:51;;;;;;;13.90;12.68;;;;;;;36.35;27.96;99219.44;5014541;28;20084;-88
2022/07/25 10:23:20;;;;;;;12.48;11.38;;;;;;;37.07;27.52;99314.25;5013253;28;20045;-88
2022/07/25 10:25:57;;;;;;;13.45;12.25;;;;;;;36.92;27.46;99285.63;5014365;28;20033;-87
2022/07/25 10:28:35;;;;;;;14.52;12.05;;;;;;;36.12;26.98;99131.31;5013119;28;20030;-86
2022/07/25 10:31:00;;;;;;;12.50;11.25;;;;;;;36.15;27.14;99101.16;5012382;28;20025;-88
2022/07/25 10:33:26;;;;;;;13.00;11.68;;;;;;;36.86;26.92;99187.22;5010195;28;20029;-88
2022/07/25 10:35:51;;;;;;;12.32;11.32;;;;;;;36.96;27.13;99277.44;5021916;28;20522;-87
2022/07/25 10:38:23;;;;;;;12.15;10.95;;;;;;;36.96;27.53;99293.16;5012961;28;20108;-88
2022/07/25 10:40:49;;;;;;;14.13;12.75;;;;;;;36.66;27.66;99274.41;5027785;28;20116;-88
2022/07/25 10:43:20;;;;;;;15.25;13.43;;;;;;;37.02;27.42;99286.22;5012865;28;20116;-88
2022/07/25 10:45:56;;;;;;;12.68;11.48;;;;;;;37.03;27.28;99276.81;5029678;28;20033;-87
2022/07/25 10:48:25;;;;;;;11.88;10.90;;;;;;;37.03;26.96;99224.50;5013557;28;20029;-88
2022/07/25 10:51:02;;;;;;;12.70;11.70;;;;;;;36.70;26.96;99169.94;5027973;28;20104;-87
2022/07/25 10:53:45;;;;;;;11.57;10.52;;;;;;;37.75;26.46;99274.38;5014654;28;20022;-88
2022/07/25 10:56:14;;;;;;;11.32;10.40;;;;;;;37.41;26.81;99273.31;5012695;28;20026;-87
2022/07/25 10:58:51;;;;;;;12.90;11.60;;;;;;;37.06;27.05;99273.34;5029760;28;20026;-87
2022/07/25 11:01:31;;;;;;;12.65;11.48;;;;;;;36.46;27.25;99226.81;5029270;28;20112;-88
2022/07/25 11:04:01;;;;;;;12.00;10.88;;;;;;;36.45;27.63;99269.22;5008813;28;20026;-88
2022/07/25 11:06:32;;;;;;;;;;;;;;;36.41;27.66;99264.75;5010207;28;20022;-87
2022/07/25 11:08:59;;;;;;;12.38;11.10;;;;;;;36.39;27.40;99201.88;5010830;28;20383;-87
2022/07/25 11:11:52;;;;;;;13.15;12.05;;;;;;;37.01;27.21;99240.59;5009858;28;20065;-87
2022/07/25 11:14:18;;;;;;;12.52;11.35;;;;;;;37.57;26.52;99259.44;4992941;28;20030;-87
2022/07/25 11:16:44;;;;;;;12.38;11.10;;;;;;;37.57;25.76;99220.88;5011314;28;20029;-87
2022/07/25 11:19:26;;;;;;;13.52;11.35;;;;;;;37.31;25.64;99194.84;5020192;28;20030;-88